sensor_id;sensor_type;location;lat;lon;timestamp;P1;durP1;ratioP1;P2;durP2;ratioP2
16478;SDS011;8350;52.316;10.530;2022-07-24T00:00:39;3.05;;;2.20;;
16478;SDS011;8350;52.316;10.530;2022-07-24T00:03:06;3.95;;;2.20;;
16478;SDS011;8350;52.316;10.530;2022-07-24T00:05:33;2.40;;;1.55;;
16478;SDS011;8350;52.316;10.530;2022-07-24T00:08:01;2.15;;;2.05;;
16478;SDS011;8350;52.316;10.530;2022-07-24T00:10:28;2.05;;;1.88;;
16478;SDS011;8350;52.316;10.530;2022-07-24T00:12:56;2.33;;;1.98;;
16478;SDS011;8350;52.316;10.530;2022-07-24T00:15:23;1.70;;;1.60;;
16478;SDS011;8350;52.316;10.530;2022-07-24T00:17:49;1.90;;;1.80;;
16478;SDS011;8350;52.316;10.530;2022-07-24T00:20:16;2.13;;;1.58;;
16478;SDS011;8350;52.316;10.530;2022-07-24T00:22:43;1.83;;;1.40;;
16478;SDS011;8350;52.316;10.530;2022-07-24T00:25:11;2.55;;;1.80;;
16478;SDS011;8350;52.316;10.530;2022-07-24T00:27:38;2.55;;;1.42;;
16478;SDS011;8350;52.316;10.530;2022-07-24T00:30:05;1.70;;;1.50;;
16478;SDS011;8350;52.316;10.530;2022-07-24T00:32:34;1.63;;;1.40;;
16478;SDS011;8350;52.316;10.530;2022-07-24T00:35:02;1.60;;;1.50;;
16478;SDS011;8350;52.316;10.530;2022-07-24T00:37:30;1.40;;;1.30;;
16478;SDS011;8350;52.316;10.530;2022-07-24T00:39:58;2.38;;;1.70;;
16478;SDS011;8350;52.316;10.530;2022-07-24T00:42:26;1.48;;;1.30;;
16478;SDS011;8350;52.316;10.530;2022-07-24T00:44:53;4.10;;;1.55;;
16478;SDS011;8350;52.316;10.530;2022-07-24T00:47:20;2.42;;;1.40;;
16478;SDS011;8350;52.316;10.530;2022-07-24T00:49:46;1.20;;;1.10;;
16478;SDS011;8350;52.316;10.530;2022-07-24T00:52:13;1.70;;;1.60;;
16478;SDS011;8350;52.316;10.530;2022-07-24T00:54:40;2.95;;;1.60;;
16478;SDS011;8350;52.316;10.530;2022-07-24T00:57:07;1.90;;;1.80;;
16478;SDS011;8350;52.316;10.530;2022-07-24T00:59:35;2.35;;;1.65;;
16478;SDS011;8350;52.316;10.530;2022-07-24T01:02:02;1.60;;;1.50;;
16478;SDS011;8350;52.316;10.530;2022-07-24T01:04:29;1.50;;;1.40;;
16478;SDS011;8350;52.316;10.530;2022-07-24T01:06:56;2.15;;;1.88;;
16478;SDS011;8350;52.316;10.530;2022-07-24T01:09:25;1.85;;;1.65;;
16478;SDS011;8350;52.316;10.530;2022-07-24T01:11:52;1.98;;;1.80;;
16478;SDS011;8350;52.316;10.530;2022-07-24T01:14:19;1.67;;;1.42;;
16478;SDS011;8350;52.316;10.530;2022-07-24T01:16:47;3.50;;;1.83;;
16478;SDS011;8350;52.316;10.530;2022-07-24T01:19:14;1.65;;;1.55;;
16478;SDS011;8350;52.316;10.530;2022-07-24T01:21:45;1.42;;;1.33;;
16478;SDS011;8350;52.316;10.530;2022-07-24T01:24:13;1.60;;;1.50;;
16478;SDS011;8350;52.316;10.530;2022-07-24T01:26:40;1.75;;;1.27;;
16478;SDS011;8350;52.316;10.530;2022-07-24T01:29:06;2.75;;;1.25;;
16478;SDS011;8350;52.316;10.530;2022-07-24T01:31:33;2.75;;;1.58;;
16478;SDS011;8350;52.316;10.530;2022-07-24T01:34:00;3.33;;;1.65;;
16478;SDS011;8350;52.316;10.530;2022-07-24T01:36:27;4.28;;;2.17;;
16478;SDS011;8350;52.316;10.530;2022-07-24T01:38:55;1.70;;;1.60;;
16478;SDS011;8350;52.316;10.530;2022-07-24T01:41:22;1.98;;;1.80;;
16478;SDS011;8350;52.316;10.530;2022-07-24T01:43:49;1.63;;;1.52;;
16478;SDS011;8350;52.316;10.530;2022-07-24T01:46:15;2.58;;;1.83;;
16478;SDS011;8350;52.316;10.530;2022-07-24T01:48:42;2.15;;;1.67;;
16478;SDS011;8350;52.316;10.530;2022-07-24T01:51:09;3.42;;;1.70;;
16478;SDS011;8350;52.316;10.530;2022-07-24T01:53:36;2.75;;;1.80;;
16478;SDS011;8350;52.316;10.530;2022-07-24T01:56:05;1.90;;;1.80;;
16478;SDS011;8350;52.316;10.530;2022-07-24T01:58:32;2.75;;;1.90;;
16478;SDS011;8350;52.316;10.530;2022-07-24T02:01:00;2.42;;;2.22;;
16478;SDS011;8350;52.316;10.530;2022-07-24T02:03:27;2.53;;;2.30;;
16478;SDS011;8350;52.316;10.530;2022-07-24T02:05:54;2.28;;;2.00;;
16478;SDS011;8350;52.316;10.530;2022-07-24T02:08:21;2.70;;;1.85;;
16478;SDS011;8350;52.316;10.530;2022-07-24T02:10:48;2.30;;;2.17;;
16478;SDS011;8350;52.316;10.530;2022-07-24T02:13:16;2.92;;;2.47;;
16478;SDS011;8350;52.316;10.530;2022-07-24T02:15:43;3.25;;;2.13;;
16478;SDS011;8350;52.316;10.530;2022-07-24T02:18:09;2.13;;;2.03;;
16478;SDS011;8350;52.316;10.530;2022-07-24T02:20:37;3.85;;;2.03;;
16478;SDS011;8350;52.316;10.530;2022-07-24T02:23:04;2.03;;;1.92;;
16478;SDS011;8350;52.316;10.530;2022-07-24T02:25:31;2.40;;;2.20;;
16478;SDS011;8350;52.316;10.530;2022-07-24T02:27:58;2.45;;;2.25;;
16478;SDS011;8350;52.316;10.530;2022-07-24T02:30:26;1.92;;;1.83;;
16478;SDS011;8350;52.316;10.530;2022-07-24T02:32:53;2.50;;;2.30;;
16478;SDS011;8350;52.316;10.530;2022-07-24T02:35:19;2.10;;;1.90;;
16478;SDS011;8350;52.316;10.530;2022-07-24T02:37:53;2.72;;;2.00;;
16478;SDS011;8350;52.316;10.530;2022-07-24T02:40:20;2.30;;;2.10;;
16478;SDS011;8350;52.316;10.530;2022-07-24T02:42:47;3.58;;;2.40;;
16478;SDS011;8350;52.316;10.530;2022-07-24T02:45:14;3.45;;;2.10;;
16478;SDS011;8350;52.316;10.530;2022-07-24T02:47:48;4.45;;;2.03;;
16478;SDS011;8350;52.316;10.530;2022-07-24T02:50:16;2.53;;;2.30;;
16478;SDS011;8350;52.316;10.530;2022-07-24T02:52:44;2.35;;;2.17;;
16478;SDS011;8350;52.316;10.530;2022-07-24T02:55:10;3.85;;;2.38;;
16478;SDS011;8350;52.316;10.530;2022-07-24T02:57:37;2.90;;;2.30;;
16478;SDS011;8350;52.316;10.530;2022-07-24T03:00:05;2.30;;;2.10;;
16478;SDS011;8350;52.316;10.530;2022-07-24T03:02:34;2.08;;;1.88;;
16478;SDS011;8350;52.316;10.530;2022-07-24T03:05:03;2.20;;;1.98;;
16478;SDS011;8350;52.316;10.530;2022-07-24T03:07:30;2.03;;;1.92;;
16478;SDS011;8350;52.316;10.530;2022-07-24T03:09:58;2.25;;;1.95;;
16478;SDS011;8350;52.316;10.530;2022-07-24T03:12:24;2.72;;;1.92;;
16478;SDS011;8350;52.316;10.530;2022-07-24T03:14:51;4.10;;;2.08;;
16478;SDS011;8350;52.316;10.530;2022-07-24T03:17:18;2.45;;;2.05;;
16478;SDS011;8350;52.316;10.530;2022-07-24T03:19:45;2.30;;;2.00;;
16478;SDS011;8350;52.316;10.530;2022-07-24T03:22:13;2.42;;;2.22;;
16478;SDS011;8350;52.316;10.530;2022-07-24T03:24:40;2.55;;;2.35;;
16478;SDS011;8350;52.316;10.530;2022-07-24T03:27:06;1.85;;;1.75;;
16478;SDS011;8350;52.316;10.530;2022-07-24T03:29:33;4.05;;;2.63;;
16478;SDS011;8350;52.316;10.530;2022-07-24T03:32:00;2.15;;;2.00;;
16478;SDS011;8350;52.316;10.530;2022-07-24T03:34:27;2.50;;;2.30;;
16478;SDS011;8350;52.316;10.530;2022-07-24T03:36:53;2.38;;;2.20;;
16478;SDS011;8350;52.316;10.530;2022-07-24T03:39:21;3.38;;;2.28;;
16478;SDS011;8350;52.316;10.530;2022-07-24T03:41:48;2.83;;;2.63;;
16478;SDS011;8350;52.316;10.530;2022-07-24T03:44:15;2.83;;;2.63;;
16478;SDS011;8350;52.316;10.530;2022-07-24T03:46:42;2.78;;;2.58;;
16478;SDS011;8350;52.316;10.530;2022-07-24T03:49:08;2.78;;;2.58;;
16478;SDS011;8350;52.316;10.530;2022-07-24T03:51:35;2.22;;;2.13;;
16478;SDS011;8350;52.316;10.530;2022-07-24T03:54:02;3.30;;;2.42;;
16478;SDS011;8350;52.316;10.530;2022-07-24T03:56:30;2.65;;;2.20;;
16478;SDS011;8350;52.316;10.530;2022-07-24T03:58:59;3.53;;;2.50;;
16478;SDS011;8350;52.316;10.530;2022-07-24T04:01:26;2.22;;;2.03;;
16478;SDS011;8350;52.316;10.530;2022-07-24T04:03:53;2.47;;;2.28;;
16478;SDS011;8350;52.316;10.530;2022-07-24T04:06:21;3.15;;;2.83;;
16478;SDS011;8350;52.316;10.530;2022-07-24T04:08:48;4.80;;;2.83;;
16478;SDS011;8350;52.316;10.530;2022-07-24T04:11:14;2.75;;;2.55;;
16478;SDS011;8350;52.316;10.530;2022-07-24T04:13:43;2.67;;;2.47;;
16478;SDS011;8350;52.316;10.530;2022-07-24T04:16:10;2.83;;;2.58;;
16478;SDS011;8350;52.316;10.530;2022-07-24T04:18:37;3.42;;;2.70;;
16478;SDS011;8350;52.316;10.530;2022-07-24T04:21:04;6.13;;;2.45;;
16478;SDS011;8350;52.316;10.530;2022-07-24T04:23:31;2.38;;;2.17;;
16478;SDS011;8350;52.316;10.530;2022-07-24T04:25:58;3.33;;;2.30;;
16478;SDS011;8350;52.316;10.530;2022-07-24T04:28:24;2.28;;;2.08;;
16478;SDS011;8350;52.316;10.530;2022-07-24T04:30:53;2.55;;;1.95;;
16478;SDS011;8350;52.316;10.530;2022-07-24T04:33:19;3.58;;;2.60;;
16478;SDS011;8350;52.316;10.530;2022-07-24T04:35:46;2.63;;;2.40;;
16478;SDS011;8350;52.316;10.530;2022-07-24T04:38:13;4.15;;;2.25;;
16478;SDS011;8350;52.316;10.530;2022-07-24T04:40:40;4.28;;;2.30;;
16478;SDS011;8350;52.316;10.530;2022-07-24T04:43:07;2.33;;;2.13;;
16478;SDS011;8350;52.316;10.530;2022-07-24T04:45:34;3.03;;;2.47;;
16478;SDS011;8350;52.316;10.530;2022-07-24T04:48:02;3.08;;;2.25;;
16478;SDS011;8350;52.316;10.530;2022-07-24T04:50:35;3.17;;;2.00;;
16478;SDS011;8350;52.316;10.530;2022-07-24T04:53:02;3.83;;;2.38;;
16478;SDS011;8350;52.316;10.530;2022-07-24T04:55:29;3.22;;;2.00;;
16478;SDS011;8350;52.316;10.530;2022-07-24T04:57:55;3.85;;;2.10;;
16478;SDS011;8350;52.316;10.530;2022-07-24T05:00:22;3.10;;;2.15;;
16478;SDS011;8350;52.316;10.530;2022-07-24T05:02:49;2.58;;;2.30;;
16478;SDS011;8350;52.316;10.530;2022-07-24T05:05:17;2.58;;;1.98;;
16478;SDS011;8350;52.316;10.530;2022-07-24T05:07:44;2.88;;;2.20;;
16478;SDS011;8350;52.316;10.530;2022-07-24T05:10:11;2.38;;;2.00;;
16478;SDS011;8350;52.316;10.530;2022-07-24T05:12:37;3.60;;;2.10;;
16478;SDS011;8350;52.316;10.530;2022-07-24T05:15:05;1.92;;;1.63;;
16478;SDS011;8350;52.316;10.530;2022-07-24T05:17:33;2.00;;;1.70;;
16478;SDS011;8350;52.316;10.530;2022-07-24T05:20:01;2.75;;;1.80;;
16478;SDS011;8350;52.316;10.530;2022-07-24T05:22:30;2.53;;;1.60;;
16478;SDS011;8350;52.316;10.530;2022-07-24T05:24:56;2.67;;;2.13;;
16478;SDS011;8350;52.316;10.530;2022-07-24T05:27:23;3.53;;;2.03;;
16478;SDS011;8350;52.316;10.530;2022-07-24T05:29:50;2.42;;;1.35;;
16478;SDS011;8350;52.316;10.530;2022-07-24T05:32:17;4.28;;;1.75;;
16478;SDS011;8350;52.316;10.530;2022-07-24T05:34:44;1.50;;;1.40;;
16478;SDS011;8350;52.316;10.530;2022-07-24T05:37:10;3.72;;;1.55;;
16478;SDS011;8350;52.316;10.530;2022-07-24T05:39:39;2.15;;;1.42;;
16478;SDS011;8350;52.316;10.530;2022-07-24T05:42:06;3.08;;;1.42;;
16478;SDS011;8350;52.316;10.530;2022-07-24T05:44:32;3.25;;;1.13;;
16478;SDS011;8350;52.316;10.530;2022-07-24T05:46:59;4.03;;;1.45;;
16478;SDS011;8350;52.316;10.530;2022-07-24T05:49:26;2.05;;;1.65;;
16478;SDS011;8350;52.316;10.530;2022-07-24T05:51:53;1.30;;;1.17;;
16478;SDS011;8350;52.316;10.530;2022-07-24T05:54:20;2.25;;;1.35;;
16478;SDS011;8350;52.316;10.530;2022-07-24T05:56:48;1.95;;;1.27;;
16478;SDS011;8350;52.316;10.530;2022-07-24T05:59:15;0.90;;;0.90;;
16478;SDS011;8350;52.316;10.530;2022-07-24T06:01:41;2.00;;;1.20;;
16478;SDS011;8350;52.316;10.530;2022-07-24T06:04:08;3.03;;;1.08;;
16478;SDS011;8350;52.316;10.530;2022-07-24T06:06:35;1.83;;;1.10;;
16478;SDS011;8350;52.316;10.530;2022-07-24T06:09:02;2.67;;;1.13;;
16478;SDS011;8350;52.316;10.530;2022-07-24T06:11:30;1.58;;;1.33;;
16478;SDS011;8350;52.316;10.530;2022-07-24T06:13:58;4.15;;;1.17;;
16478;SDS011;8350;52.316;10.530;2022-07-24T06:16:24;1.98;;;1.10;;
16478;SDS011;8350;52.316;10.530;2022-07-24T06:18:54;2.25;;;1.30;;
16478;SDS011;8350;52.316;10.530;2022-07-24T06:21:21;1.23;;;1.00;;
16478;SDS011;8350;52.316;10.530;2022-07-24T06:23:48;2.38;;;1.27;;
16478;SDS011;8350;52.316;10.530;2022-07-24T06:26:15;1.67;;;1.20;;
16478;SDS011;8350;52.316;10.530;2022-07-24T06:28:41;1.65;;;1.15;;
16478;SDS011;8350;52.316;10.530;2022-07-24T06:31:12;3.05;;;1.23;;
16478;SDS011;8350;52.316;10.530;2022-07-24T06:33:38;2.05;;;1.10;;
16478;SDS011;8350;52.316;10.530;2022-07-24T06:36:06;1.95;;;1.08;;
16478;SDS011;8350;52.316;10.530;2022-07-24T06:38:33;1.27;;;1.05;;
16478;SDS011;8350;52.316;10.530;2022-07-24T06:41:01;2.00;;;1.10;;
16478;SDS011;8350;52.316;10.530;2022-07-24T06:43:28;3.65;;;1.10;;
16478;SDS011;8350;52.316;10.530;2022-07-24T06:45:55;4.30;;;1.30;;
16478;SDS011;8350;52.316;10.530;2022-07-24T06:48:23;5.70;;;1.20;;
16478;SDS011;8350;52.316;10.530;2022-07-24T06:50:49;1.40;;;1.00;;
16478;SDS011;8350;52.316;10.530;2022-07-24T06:53:16;2.58;;;0.98;;
16478;SDS011;8350;52.316;10.530;2022-07-24T06:55:43;2.50;;;1.10;;
16478;SDS011;8350;52.316;10.530;2022-07-24T06:58:10;2.38;;;1.08;;
16478;SDS011;8350;52.316;10.530;2022-07-24T07:00:36;2.58;;;1.15;;
16478;SDS011;8350;52.316;10.530;2022-07-24T07:03:06;2.00;;;1.20;;
16478;SDS011;8350;52.316;10.530;2022-07-24T07:05:34;1.50;;;1.08;;
16478;SDS011;8350;52.316;10.530;2022-07-24T07:08:01;1.70;;;1.15;;
16478;SDS011;8350;52.316;10.530;2022-07-24T07:10:28;4.35;;;1.00;;
16478;SDS011;8350;52.316;10.530;2022-07-24T07:12:55;1.50;;;1.20;;
16478;SDS011;8350;52.316;10.530;2022-07-24T07:15:22;2.75;;;1.02;;
16478;SDS011;8350;52.316;10.530;2022-07-24T07:17:49;1.38;;;1.20;;
16478;SDS011;8350;52.316;10.530;2022-07-24T07:20:15;1.38;;;1.20;;
16478;SDS011;8350;52.316;10.530;2022-07-24T07:22:45;1.92;;;1.08;;
16478;SDS011;8350;52.316;10.530;2022-07-24T07:25:14;2.47;;;1.27;;
16478;SDS011;8350;52.316;10.530;2022-07-24T07:27:41;1.35;;;0.98;;
16478;SDS011;8350;52.316;10.530;2022-07-24T07:30:08;1.75;;;1.08;;
16478;SDS011;8350;52.316;10.530;2022-07-24T07:32:37;1.95;;;0.95;;
16478;SDS011;8350;52.316;10.530;2022-07-24T07:35:04;2.13;;;1.02;;
16478;SDS011;8350;52.316;10.530;2022-07-24T07:37:32;3.90;;;1.20;;
16478;SDS011;8350;52.316;10.530;2022-07-24T07:40:00;1.85;;;1.20;;
16478;SDS011;8350;52.316;10.530;2022-07-24T07:42:30;1.33;;;1.05;;
16478;SDS011;8350;52.316;10.530;2022-07-24T07:44:56;1.95;;;1.20;;
16478;SDS011;8350;52.316;10.530;2022-07-24T07:47:23;4.38;;;2.10;;
16478;SDS011;8350;52.316;10.530;2022-07-24T07:49:50;1.45;;;0.90;;
16478;SDS011;8350;52.316;10.530;2022-07-24T07:52:17;1.52;;;1.10;;
16478;SDS011;8350;52.316;10.530;2022-07-24T07:54:44;2.25;;;1.67;;
16478;SDS011;8350;52.316;10.530;2022-07-24T07:57:12;1.83;;;1.40;;
16478;SDS011;8350;52.316;10.530;2022-07-24T07:59:39;2.28;;;1.30;;
16478;SDS011;8350;52.316;10.530;2022-07-24T08:02:06;2.20;;;1.20;;
16478;SDS011;8350;52.316;10.530;2022-07-24T08:04:35;3.63;;;1.48;;
16478;SDS011;8350;52.316;10.530;2022-07-24T08:07:02;1.67;;;1.20;;
16478;SDS011;8350;52.316;10.530;2022-07-24T08:09:28;1.50;;;1.35;;
16478;SDS011;8350;52.316;10.530;2022-07-24T08:11:56;2.75;;;1.30;;
16478;SDS011;8350;52.316;10.530;2022-07-24T08:14:24;1.45;;;1.20;;
16478;SDS011;8350;52.316;10.530;2022-07-24T08:16:51;1.95;;;1.20;;
16478;SDS011;8350;52.316;10.530;2022-07-24T08:19:18;2.78;;;1.80;;
16478;SDS011;8350;52.316;10.530;2022-07-24T08:21:45;2.88;;;1.30;;
16478;SDS011;8350;52.316;10.530;2022-07-24T08:24:15;3.00;;;1.90;;
16478;SDS011;8350;52.316;10.530;2022-07-24T08:26:45;1.85;;;1.75;;
16478;SDS011;8350;52.316;10.530;2022-07-24T08:29:13;2.03;;;1.50;;
16478;SDS011;8350;52.316;10.530;2022-07-24T08:31:41;1.90;;;1.50;;
16478;SDS011;8350;52.316;10.530;2022-07-24T08:34:08;2.03;;;1.83;;
16478;SDS011;8350;52.316;10.530;2022-07-24T08:36:35;2.00;;;1.45;;
16478;SDS011;8350;52.316;10.530;2022-07-24T08:39:03;3.17;;;1.60;;
16478;SDS011;8350;52.316;10.530;2022-07-24T08:41:30;1.95;;;1.70;;
16478;SDS011;8350;52.316;10.530;2022-07-24T08:44:01;2.00;;;1.80;;
16478;SDS011;8350;52.316;10.530;2022-07-24T08:46:31;2.50;;;1.90;;
16478;SDS011;8350;52.316;10.530;2022-07-24T08:49:00;2.78;;;2.13;;
16478;SDS011;8350;52.316;10.530;2022-07-24T08:51:29;3.95;;;2.20;;
16478;SDS011;8350;52.316;10.530;2022-07-24T08:54:03;2.85;;;2.05;;
16478;SDS011;8350;52.316;10.530;2022-07-24T08:56:31;3.30;;;2.03;;
16478;SDS011;8350;52.316;10.530;2022-07-24T09:08:30;3.95;;;2.65;;
16478;SDS011;8350;52.316;10.530;2022-07-24T09:17:05;4.13;;;2.65;;
16478;SDS011;8350;52.316;10.530;2022-07-24T09:19:45;2.92;;;2.58;;
16478;SDS011;8350;52.316;10.530;2022-07-24T09:22:19;2.60;;;2.40;;
16478;SDS011;8350;52.316;10.530;2022-07-24T09:25:03;3.15;;;2.22;;
16478;SDS011;8350;52.316;10.530;2022-07-24T09:27:40;3.17;;;2.58;;
16478;SDS011;8350;52.316;10.530;2022-07-24T09:30:21;4.18;;;2.60;;
16478;SDS011;8350;52.316;10.530;2022-07-24T09:32:57;2.60;;;2.28;;
16478;SDS011;8350;52.316;10.530;2022-07-24T09:35:37;2.85;;;2.65;;
16478;SDS011;8350;52.316;10.530;2022-07-24T09:38:11;4.03;;;2.60;;
16478;SDS011;8350;52.316;10.530;2022-07-24T09:40:45;4.65;;;2.05;;
16478;SDS011;8350;52.316;10.530;2022-07-24T09:43:14;2.90;;;2.00;;
16478;SDS011;8350;52.316;10.530;2022-07-24T09:45:53;4.05;;;2.30;;
16478;SDS011;8350;52.316;10.530;2022-07-24T09:48:23;2.05;;;1.92;;
16478;SDS011;8350;52.316;10.530;2022-07-24T09:50:59;4.63;;;2.30;;
16478;SDS011;8350;52.316;10.530;2022-07-24T09:53:29;2.75;;;2.03;;
16478;SDS011;8350;52.316;10.530;2022-07-24T09:55:58;2.55;;;2.35;;
16478;SDS011;8350;52.316;10.530;2022-07-24T09:58:26;3.67;;;2.00;;
16478;SDS011;8350;52.316;10.530;2022-07-24T10:00:56;2.20;;;2.00;;
16478;SDS011;8350;52.316;10.530;2022-07-24T10:03:27;2.20;;;1.85;;
16478;SDS011;8350;52.316;10.530;2022-07-24T10:06:12;2.90;;;2.38;;
16478;SDS011;8350;52.316;10.530;2022-07-24T10:08:42;6.55;;;2.53;;
16478;SDS011;8350;52.316;10.530;2022-07-24T10:11:17;2.85;;;2.50;;
16478;SDS011;8350;52.316;10.530;2022-07-24T10:13:46;3.13;;;2.80;;
16478;SDS011;8350;52.316;10.530;2022-07-24T10:16:22;2.55;;;2.35;;
16478;SDS011;8350;52.316;10.530;2022-07-24T10:18:53;2.58;;;2.42;;
16478;SDS011;8350;52.316;10.530;2022-07-24T10:21:32;2.80;;;2.50;;
16478;SDS011;8350;52.316;10.530;2022-07-24T10:24:12;3.90;;;2.15;;
16478;SDS011;8350;52.316;10.530;2022-07-24T10:27:07;4.97;;;2.35;;
16478;SDS011;8350;52.316;10.530;2022-07-24T10:29:46;2.83;;;2.55;;
16478;SDS011;8350;52.316;10.530;2022-07-24T10:32:14;2.70;;;2.50;;
16478;SDS011;8350;52.316;10.530;2022-07-24T10:34:45;2.70;;;2.08;;
16478;SDS011;8350;52.316;10.530;2022-07-24T10:37:18;2.45;;;2.25;;
16478;SDS011;8350;52.316;10.530;2022-07-24T10:40:00;2.30;;;2.10;;
16478;SDS011;8350;52.316;10.530;2022-07-24T10:45:35;3.22;;;2.40;;
16478;SDS011;8350;52.316;10.530;2022-07-24T10:53:52;2.30;;;2.10;;
16478;SDS011;8350;52.316;10.530;2022-07-24T10:56:25;2.58;;;2.13;;
16478;SDS011;8350;52.316;10.530;2022-07-24T10:58:54;2.67;;;2.47;;
16478;SDS011;8350;52.316;10.530;2022-07-24T11:01:31;2.50;;;2.00;;
16478;SDS011;8350;52.316;10.530;2022-07-24T11:04:00;3.05;;;2.45;;
16478;SDS011;8350;52.316;10.530;2022-07-24T11:06:41;3.03;;;2.42;;
16478;SDS011;8350;52.316;10.530;2022-07-24T11:09:09;5.40;;;2.40;;
16478;SDS011;8350;52.316;10.530;2022-07-24T11:11:41;4.05;;;2.80;;
16478;SDS011;8350;52.316;10.530;2022-07-24T11:29:13;2.63;;;2.17;;
16478;SDS011;8350;52.316;10.530;2022-07-24T11:31:40;2.85;;;2.33;;
16478;SDS011;8350;52.316;10.530;2022-07-24T11:34:09;2.10;;;1.90;;
16478;SDS011;8350;52.316;10.530;2022-07-24T11:36:36;2.22;;;1.92;;
16478;SDS011;8350;52.316;10.530;2022-07-24T11:39:07;3.13;;;2.00;;
16478;SDS011;8350;52.316;10.530;2022-07-24T11:41:43;2.20;;;2.00;;
16478;SDS011;8350;52.316;10.530;2022-07-24T11:44:12;2.45;;;1.65;;
16478;SDS011;8350;52.316;10.530;2022-07-24T11:46:42;1.70;;;1.60;;
16478;SDS011;8350;52.316;10.530;2022-07-24T11:49:09;1.55;;;1.45;;
16478;SDS011;8350;52.316;10.530;2022-07-24T11:51:40;2.85;;;1.70;;
16478;SDS011;8350;52.316;10.530;2022-07-24T11:54:08;2.28;;;1.70;;
16478;SDS011;8350;52.316;10.530;2022-07-24T11:56:35;2.28;;;2.08;;
16478;SDS011;8350;52.316;10.530;2022-07-24T11:59:02;2.60;;;2.10;;
16478;SDS011;8350;52.316;10.530;2022-07-24T12:04:28;2.25;;;2.05;;
16478;SDS011;8350;52.316;10.530;2022-07-24T12:07:01;2.63;;;2.20;;
16478;SDS011;8350;52.316;10.530;2022-07-24T12:09:31;1.80;;;1.70;;
16478;SDS011;8350;52.316;10.530;2022-07-24T12:12:00;6.07;;;2.10;;
16478;SDS011;8350;52.316;10.530;2022-07-24T12:14:28;2.35;;;2.00;;
16478;SDS011;8350;52.316;10.530;2022-07-24T12:16:57;2.38;;;1.85;;
16478;SDS011;8350;52.316;10.530;2022-07-24T12:19:34;2.95;;;1.90;;
16478;SDS011;8350;52.316;10.530;2022-07-24T12:22:04;1.88;;;1.65;;
16478;SDS011;8350;52.316;10.530;2022-07-24T12:24:33;1.90;;;1.80;;
16478;SDS011;8350;52.316;10.530;2022-07-24T12:27:02;3.33;;;1.83;;
16478;SDS011;8350;52.316;10.530;2022-07-24T12:29:30;2.70;;;1.63;;
16478;SDS011;8350;52.316;10.530;2022-07-24T12:32:17;1.70;;;1.60;;
16478;SDS011;8350;52.316;10.530;2022-07-24T12:34:45;1.70;;;1.52;;
16478;SDS011;8350;52.316;10.530;2022-07-24T12:43:46;3.10;;;2.00;;
16478;SDS011;8350;52.316;10.530;2022-07-24T12:46:13;2.33;;;1.77;;
16478;SDS011;8350;52.316;10.530;2022-07-24T12:48:58;3.22;;;1.98;;
16478;SDS011;8350;52.316;10.530;2022-07-24T12:57:09;2.45;;;1.70;;
16478;SDS011;8350;52.316;10.530;2022-07-24T13:02:26;2.60;;;1.73;;
16478;SDS011;8350;52.316;10.530;2022-07-24T13:05:03;1.63;;;1.52;;
16478;SDS011;8350;52.316;10.530;2022-07-24T13:07:31;2.85;;;2.20;;
16478;SDS011;8350;52.316;10.530;2022-07-24T13:10:09;2.08;;;1.77;;
16478;SDS011;8350;52.316;10.530;2022-07-24T13:15:34;1.80;;;1.70;;
16478;SDS011;8350;52.316;10.530;2022-07-24T13:18:01;4.38;;;2.30;;
16478;SDS011;8350;52.316;10.530;2022-07-24T13:20:29;1.90;;;1.70;;
16478;SDS011;8350;52.316;10.530;2022-07-24T13:22:56;2.28;;;1.90;;
16478;SDS011;8350;52.316;10.530;2022-07-24T13:25:23;1.80;;;1.70;;
16478;SDS011;8350;52.316;10.530;2022-07-24T13:27:50;2.75;;;1.80;;
16478;SDS011;8350;52.316;10.530;2022-07-24T13:30:17;2.42;;;1.95;;
16478;SDS011;8350;52.316;10.530;2022-07-24T13:32:48;2.97;;;1.77;;
16478;SDS011;8350;52.316;10.530;2022-07-24T13:35:14;2.97;;;1.70;;
16478;SDS011;8350;52.316;10.530;2022-07-24T13:37:43;2.42;;;1.73;;
16478;SDS011;8350;52.316;10.530;2022-07-24T13:40:10;1.77;;;1.67;;
16478;SDS011;8350;52.316;10.530;2022-07-24T13:42:38;2.45;;;1.80;;
16478;SDS011;8350;52.316;10.530;2022-07-24T13:45:14;2.20;;;2.00;;
16478;SDS011;8350;52.316;10.530;2022-07-24T13:47:40;2.17;;;1.98;;
16478;SDS011;8350;52.316;10.530;2022-07-24T13:50:08;4.53;;;1.90;;
16478;SDS011;8350;52.316;10.530;2022-07-24T13:52:36;2.45;;;1.63;;
16478;SDS011;8350;52.316;10.530;2022-07-24T13:55:05;2.30;;;2.10;;
16478;SDS011;8350;52.316;10.530;2022-07-24T13:57:32;1.70;;;1.60;;
16478;SDS011;8350;52.316;10.530;2022-07-24T13:59:59;1.55;;;1.45;;
16478;SDS011;8350;52.316;10.530;2022-07-24T14:02:30;2.95;;;1.92;;
16478;SDS011;8350;52.316;10.530;2022-07-24T14:04:57;1.70;;;1.60;;
16478;SDS011;8350;52.316;10.530;2022-07-24T14:07:24;1.85;;;1.42;;
16478;SDS011;8350;52.316;10.530;2022-07-24T14:09:59;3.20;;;2.13;;
16478;SDS011;8350;52.316;10.530;2022-07-24T14:12:29;1.80;;;1.70;;
16478;SDS011;8350;52.316;10.530;2022-07-24T14:14:55;2.17;;;1.98;;
16478;SDS011;8350;52.316;10.530;2022-07-24T14:17:23;2.30;;;2.10;;
16478;SDS011;8350;52.316;10.530;2022-07-24T14:19:50;2.33;;;2.00;;
16478;SDS011;8350;52.316;10.530;2022-07-24T14:22:17;3.13;;;2.10;;
16478;SDS011;8350;52.316;10.530;2022-07-24T14:24:44;2.38;;;2.17;;
16478;SDS011;8350;52.316;10.530;2022-07-24T14:27:11;2.47;;;2.03;;
16478;SDS011;8350;52.316;10.530;2022-07-24T14:29:39;2.42;;;2.30;;
16478;SDS011;8350;52.316;10.530;2022-07-24T14:32:07;3.97;;;3.55;;
16478;SDS011;8350;52.316;10.530;2022-07-24T14:37:32;3.35;;;2.30;;
16478;SDS011;8350;52.316;10.530;2022-07-24T14:40:04;2.58;;;2.08;;
16478;SDS011;8350;52.316;10.530;2022-07-24T14:45:57;2.92;;;2.20;;
16478;SDS011;8350;52.316;10.530;2022-07-24T14:48:23;2.75;;;2.35;;
16478;SDS011;8350;52.316;10.530;2022-07-24T14:50:51;2.22;;;2.03;;
16478;SDS011;8350;52.316;10.530;2022-07-24T14:53:17;3.03;;;2.50;;
16478;SDS011;8350;52.316;10.530;2022-07-24T14:55:44;2.83;;;2.45;;
16478;SDS011;8350;52.316;10.530;2022-07-24T14:58:11;2.40;;;2.20;;
16478;SDS011;8350;52.316;10.530;2022-07-24T15:00:38;2.58;;;2.13;;
16478;SDS011;8350;52.316;10.530;2022-07-24T15:03:06;2.45;;;2.10;;
16478;SDS011;8350;52.316;10.530;2022-07-24T15:05:33;2.35;;;2.20;;
16478;SDS011;8350;52.316;10.530;2022-07-24T15:08:00;2.80;;;2.58;;
16478;SDS011;8350;52.316;10.530;2022-07-24T15:10:26;2.45;;;2.17;;
16478;SDS011;8350;52.316;10.530;2022-07-24T15:12:53;3.40;;;3.17;;
16478;SDS011;8350;52.316;10.530;2022-07-24T15:15:20;3.42;;;2.30;;
16478;SDS011;8350;52.316;10.530;2022-07-24T15:17:47;3.00;;;2.63;;
16478;SDS011;8350;52.316;10.530;2022-07-24T15:20:15;3.03;;;2.83;;
16478;SDS011;8350;52.316;10.530;2022-07-24T15:22:41;2.95;;;2.75;;
16478;SDS011;8350;52.316;10.530;2022-07-24T15:25:08;3.92;;;3.10;;
16478;SDS011;8350;52.316;10.530;2022-07-24T15:27:36;3.08;;;2.60;;
16478;SDS011;8350;52.316;10.530;2022-07-24T15:30:03;4.20;;;3.10;;
16478;SDS011;8350;52.316;10.530;2022-07-24T15:32:31;4.50;;;2.72;;
16478;SDS011;8350;52.316;10.530;2022-07-24T15:34:58;3.20;;;2.90;;
16478;SDS011;8350;52.316;10.530;2022-07-24T15:37:28;3.08;;;2.88;;
16478;SDS011;8350;52.316;10.530;2022-07-24T15:39:57;4.03;;;3.50;;
16478;SDS011;8350;52.316;10.530;2022-07-24T15:42:24;2.80;;;2.40;;
16478;SDS011;8350;52.316;10.530;2022-07-24T15:44:52;3.00;;;2.80;;
16478;SDS011;8350;52.316;10.530;2022-07-24T15:47:19;3.00;;;2.80;;
16478;SDS011;8350;52.316;10.530;2022-07-24T15:49:46;3.90;;;3.25;;
16478;SDS011;8350;52.316;10.530;2022-07-24T15:52:12;2.90;;;2.70;;
16478;SDS011;8350;52.316;10.530;2022-07-24T15:54:41;2.97;;;2.67;;
16478;SDS011;8350;52.316;10.530;2022-07-24T15:57:21;4.10;;;3.03;;
16478;SDS011;8350;52.316;10.530;2022-07-24T15:59:48;3.22;;;2.92;;
16478;SDS011;8350;52.316;10.530;2022-07-24T16:02:15;3.03;;;2.83;;